»·PEaware :: DAL1110 KMCO-KATL

DAL1110 :: KMCO-KATL

FLIGHT INFORMATION

Flight Status: Arrived
Operator:
Delta Air Lines
More flights by this operator :: More flights under this callsign
Pilot: Ben L. (6391)
Aircraft: AIRBUS A320
(A320)
More flights by this aircraft type
Origin: KMCO Orlando Intl
United States
Destination: KATL Hartsfield-Jackson Atlanta
United States
More flights between these airports :: More routes between these airports
Route: JAG5 VQQ CHESN LAIRI HOWRR SMOOV1
File this flight plan on PilotEdge
Remarks:
Altitude:
(Current/Filed)
36,000ft
Speed:
(Current/Filed)
480kts
Departed: 18-Feb-17 09:58 PM
Arrived: 18-Feb-17 11:01 PM
Distance/Time
Traveled:
351nm/1:02
Distance/Time
To Go:
Arrived

Flight Plot

Page will automatically refresh every two minutes.

Flight plan parsing failed; only flown route is shown


Map Options




Map Legend


Flown Route
Filed Route
Departure Airport
Arrival Airport
Navaid (VOR, NDB)
Fix

Horizontal Profiles

Position Reports

Time Latitude Longitude Heading Altitude Ground
Speed
18-Feb-17 21:40 28.434353 -81.315486 158 104ft 0kts
18-Feb-17 21:41 28.434353 -81.315486 158 104ft 0kts
18-Feb-17 21:42 28.434353 -81.315486 158 104ft 0kts
18-Feb-17 21:43 28.434353 -81.315486 158 104ft 0kts
18-Feb-17 21:44 28.434353 -81.315486 158 104ft 0kts
18-Feb-17 21:45 28.434353 -81.315486 158 104ft 0kts
18-Feb-17 21:46 28.434353 -81.315486 158 104ft 0kts
18-Feb-17 21:47 28.434353 -81.315486 158 104ft 0kts
18-Feb-17 21:48 28.434353 -81.315486 158 104ft 0kts
18-Feb-17 21:49 28.434353 -81.315486 158 104ft 0kts
18-Feb-17 21:50 28.434741 -81.315416 244 104ft 0kts
18-Feb-17 21:51 28.434747 -81.315401 246 104ft 0kts
18-Feb-17 21:52 28.434747 -81.315401 246 104ft 0kts
18-Feb-17 21:53 28.432715 -81.317549 230 104ft 14kts
18-Feb-17 21:54 28.430138 -81.320023 179 104ft 15kts
18-Feb-17 21:55 28.423944 -81.319904 180 104ft 25kts
18-Feb-17 21:56 28.418521 -81.319875 181 104ft 14kts
18-Feb-17 21:57 28.416860 -81.321413 269 104ft 4kts
18-Feb-17 21:58 28.429199 -81.322141 359 105ft 150kts
18-Feb-17 21:59 28.477511 -81.320985 346 2426ft 187kts
18-Feb-17 22:00 28.535767 -81.331211 350 4265ft 240kts
18-Feb-17 22:01 28.605946 -81.340506 356 6313ft 268kts
18-Feb-17 22:02 28.682953 -81.348302 353 8337ft 301kts
18-Feb-17 22:03 28.763907 -81.356237 351 10455ft 328kts
18-Feb-17 22:04 28.865077 -81.365934 351 11575ft 388kts
18-Feb-17 22:05 28.974319 -81.376454 350 14137ft 403kts
18-Feb-17 22:06 29.087530 -81.387383 349 16455ft 417kts
18-Feb-17 22:07 29.204518 -81.398701 349 18360ft 429kts
18-Feb-17 22:08 29.324724 -81.410358 349 19906ft 440kts
18-Feb-17 22:09 29.447640 -81.422299 349 21375ft 447kts
18-Feb-17 22:10 29.572315 -81.434446 349 22761ft 457kts
18-Feb-17 22:11 29.700127 -81.446904 349 24166ft 467kts
18-Feb-17 22:12 29.812842 -81.500428 317 26038ft 439kts
18-Feb-17 22:13 29.905852 -81.589169 314 27858ft 432kts
18-Feb-17 22:14 29.996760 -81.678122 314 29362ft 428kts
18-Feb-17 22:15 30.086962 -81.766687 314 30535ft 426kts
18-Feb-17 22:16 30.177007 -81.855278 314 31474ft 427kts
18-Feb-17 22:17 30.296582 -81.878080 358 32073ft 471kts
18-Feb-17 22:18 30.426484 -81.860703 0 32770ft 473kts
18-Feb-17 22:19 30.556408 -81.842265 0 33384ft 474kts
18-Feb-17 22:20 30.687038 -81.823651 0 33908ft 475kts
18-Feb-17 22:21 30.816373 -81.806742 351 34977ft 451kts
18-Feb-17 22:22 30.925319 -81.859765 326 35343ft 426kts
18-Feb-17 22:23 31.027827 -81.927482 326 35793ft 423kts
18-Feb-17 22:24 31.129239 -81.995265 326 36042ft 421kts
18-Feb-17 22:25 31.231043 -82.063013 326 36047ft 422kts
18-Feb-17 22:26 31.332933 -82.130304 326 36050ft 421kts
18-Feb-17 22:27 31.434314 -82.197582 326 36050ft 421kts
18-Feb-17 22:28 31.535922 -82.265255 326 36050ft 421kts
18-Feb-17 22:29 31.637586 -82.333031 326 36050ft 421kts
18-Feb-17 22:30 31.739292 -82.401108 326 36050ft 422kts
18-Feb-17 22:31 31.790029 -82.435137 326 36050ft 422kts
18-Feb-17 22:32 31.891644 -82.503424 326 36050ft 421kts
18-Feb-17 22:33 31.988780 -82.578427 315 36048ft 416kts
18-Feb-17 22:34 32.076361 -82.667419 314 35178ft 419kts
18-Feb-17 22:35 32.165020 -82.757922 312 33943ft 427kts
18-Feb-17 22:36 32.254490 -82.849536 313 32655ft 427kts
18-Feb-17 22:37 32.343714 -82.941121 313 31343ft 427kts
18-Feb-17 22:38 32.433058 -83.033182 313 30002ft 427kts
18-Feb-17 22:39 32.519728 -83.122390 313 28713ft 430kts
18-Feb-17 22:40 32.609379 -83.214755 313 26438ft 436kts
18-Feb-17 22:41 32.699111 -83.308004 314 24068ft 431kts
18-Feb-17 22:42 32.788295 -83.400837 314 21048ft 421kts
18-Feb-17 22:43 32.873888 -83.490298 314 18348ft 398kts
18-Feb-17 22:44 32.954368 -83.574567 314 15807ft 376kts
18-Feb-17 22:45 33.030710 -83.654726 315 13451ft 359kts
18-Feb-17 22:46 33.102703 -83.730379 315 11207ft 319kts
18-Feb-17 22:47 33.161609 -83.792333 315 10635ft 265kts
18-Feb-17 22:48 33.215512 -83.852101 313 10083ft 264kts
18-Feb-17 22:49 33.267691 -83.913206 313 9044ft 262kts
18-Feb-17 22:50 33.321345 -83.970359 337 7927ft 261kts
18-Feb-17 22:51 33.389856 -83.997302 341 7025ft 259kts
18-Feb-17 22:52 33.448948 -84.044742 321 6163ft 258kts
18-Feb-17 22:53 33.504099 -84.099349 321 5293ft 252kts
18-Feb-17 22:54 33.554672 -84.149490 321 4497ft 220kts
18-Feb-17 22:55 33.600119 -84.194542 320 4143ft 206kts
18-Feb-17 22:56 33.622582 -84.245269 256 3994ft 188kts
18-Feb-17 22:57 33.620402 -84.301089 269 2960ft 146kts
18-Feb-17 22:58 33.620332 -84.349257 269 2201ft 144kts
18-Feb-17 22:59 33.620283 -84.396832 271 1442ft 144kts
18-Feb-17 23:00 33.620269 -84.437171 267 1033ft 44kts
18-Feb-17 23:01 33.621218 -84.442669 298 1033ft 3kts
18-Feb-17 23:02 33.622123 -84.438127 88 1033ft 29kts
18-Feb-17 23:03 33.624192 -84.433832 353 1033ft 21kts
18-Feb-17 23:04 33.631470 -84.434203 355 1033ft 26kts
18-Feb-17 23:05 33.636608 -84.433228 320 1033ft 18kts
18-Feb-17 23:06 33.638376 -84.435168 313 1033ft 0kts
18-Feb-17 23:07 33.638376 -84.435168 313 1033ft 0kts

Navigation Log

Ident Type
Flight plan parsing failed, navigation log unavailable